Time;durP1;ratioP1;P1;durP2;ratioP2;P2;SDS_P1;SDS_P2;PMS_P1;PMS_P2;Temp;Humidity;BMP_temperature;BMP_pressure;BME280_temperature;BME280_humidity;BME280_pressure;Samples;Min_cycle;Max_cycle;Signal;HPM_P1;HPM_P2
2023/10/31 00:01:56;;;;;;;6.40;3.40;;;;;;;12.92;100.00;98683.46;105477;1253;72016;-64
2023/10/31 00:04:25;;;;;;;6.20;3.40;;;;;;;12.96;100.00;98680.38;105525;1258;81565;-64
2023/10/31 00:06:53;;;;;;;4.60;3.00;;;;;;;13.00;100.00;98662.72;105459;1257;72005;-64
2023/10/31 00:09:21;;;;;;;7.20;3.50;;;;;;;13.04;100.00;98664.73;105483;1257;69203;-64
2023/10/31 00:11:49;;;;;;;8.30;3.10;;;;;;;13.07;100.00;98662.89;105507;1256;69246;-64
2023/10/31 00:14:17;;;;;;;8.20;3.60;;;;;;;13.11;100.00;98656.46;105453;1257;71732;-64
2023/10/31 00:16:59;;;;;;;6.50;3.30;;;;;;;13.15;100.00;98656.48;105411;1257;81840;-64
2023/10/31 00:19:27;;;;;;;7.50;3.30;;;;;;;13.20;100.00;98653.69;105493;1253;71674;-64
2023/10/31 00:21:56;;;;;;;9.30;3.60;;;;;;;13.26;100.00;98649.40;105514;1253;69148;-64
2023/10/31 00:24:24;;;;;;;8.60;3.50;;;;;;;13.31;100.00;98650.06;105494;1256;69195;-64
2023/10/31 00:26:52;;;;;;;9.60;4.10;;;;;;;13.39;100.00;98646.85;105487;1253;71436;-64
2023/10/31 00:29:20;;;;;;;10.10;3.60;;;;;;;13.47;100.00;98638.91;105498;1258;82752;-64
2023/10/31 00:31:48;;;;;;;9.20;3.10;;;;;;;13.54;100.00;98631.48;105450;1253;71921;-64
2023/10/31 00:34:17;;;;;;;7.60;3.30;;;;;;;13.61;100.00;98620.55;105428;1257;69197;-64
2023/10/31 00:36:45;;;;;;;6.60;3.30;;;;;;;13.69;100.00;98617.48;105442;1258;69173;-64
2023/10/31 00:39:13;;;;;;;8.50;3.10;;;;;;;13.75;100.00;98610.39;105472;1257;72781;-64
2023/10/31 00:41:47;;;;;;;5.40;3.00;;;;;;;13.80;100.00;98601.55;105444;1253;80305;-64
2023/10/31 00:44:16;;;;;;;9.20;3.40;;;;;;;13.85;100.00;98595.38;105448;1253;70269;-64
2023/10/31 00:46:44;;;;;;;9.00;3.20;;;;;;;13.88;100.00;98599.15;105425;1253;69094;-64
2023/10/31 00:49:12;;;;;;;17.40;9.80;;;;;;;13.91;100.00;98598.43;105465;1253;69066;-65
2023/10/31 00:51:41;;;;;;;25.50;12.20;;;;;;;13.94;100.00;98594.77;105550;1258;73787;-64
2023/10/31 00:54:09;;;;;;;18.70;6.30;;;;;;;13.97;100.00;98589.65;105435;1256;81555;-64
2023/10/31 00:56:37;;;;;;;9.00;3.80;;;;;;;13.99;100.00;98585.61;105441;1258;71903;-64
2023/10/31 00:59:05;;;;;;;9.60;4.20;;;;;;;14.02;100.00;98587.86;105509;1259;69231;-64
2023/10/31 01:01:34;;;;;;;9.20;3.70;;;;;;;14.05;100.00;98589.33;105527;1253;69179;-64
2023/10/31 01:04:03;;;;;;;8.20;3.90;;;;;;;14.09;100.00;98586.95;105461;1253;74121;-65
2023/10/31 01:06:31;;;;;;;8.20;3.90;;;;;;;14.12;100.00;98582.99;105491;1257;82875;-65
2023/10/31 01:08:59;;;;;;;9.70;3.80;;;;;;;14.16;100.00;98583.04;105515;1253;72799;-64
2023/10/31 01:11:27;;;;;;;7.50;3.20;;;;;;;14.20;100.00;98580.98;105495;1253;69164;-64
2023/10/31 01:13:55;;;;;;;6.30;2.80;;;;;;;14.23;100.00;98576.69;105449;1257;69217;-65
2023/10/31 01:16:24;;;;;;;5.40;2.70;;;;;;;14.25;100.00;98577.16;105506;1253;72994;-64
2023/10/31 01:18:52;;;;;;;10.00;3.00;;;;;;;14.30;100.00;98571.21;105426;1253;82915;-64
2023/10/31 01:21:20;;;;;;;6.30;2.80;;;;;;;14.33;100.00;98564.80;105434;1256;71111;-64
2023/10/31 01:23:49;;;;;;;4.30;3.00;;;;;;;14.36;100.00;98560.30;105441;1258;69472;-65
2023/10/31 01:26:18;;;;;;;6.20;2.30;;;;;;;14.40;100.00;98555.77;105512;1253;69166;-65
2023/10/31 01:28:46;;;;;;;4.70;2.40;;;;;;;14.43;100.00;98557.33;105444;1253;73094;-65
2023/10/31 01:31:14;;;;;;;8.20;2.30;;;;;;;14.45;100.00;98559.56;105515;1257;81211;-65
2023/10/31 01:33:43;;;;;;;6.20;2.10;;;;;;;14.50;100.00;98563.77;105502;1257;71523;-65
2023/10/31 01:36:12;;;;;;;6.10;2.70;;;;;;;14.55;100.00;98562.55;105439;1258;69142;-64
2023/10/31 01:38:40;;;;;;;6.60;2.40;;;;;;;14.59;100.00;98556.19;105459;1259;69178;-64
2023/10/31 01:41:08;;;;;;;5.80;2.50;;;;;;;14.64;100.00;98548.36;105459;1253;73044;-64
2023/10/31 01:43:38;;;;;;;5.20;3.10;;;;;;;14.68;100.00;98545.56;105501;1257;82588;-65
2023/10/31 01:46:07;;;;;;;7.90;2.40;;;;;;;14.73;100.00;98543.97;105559;1253;72051;-65
2023/10/31 01:48:36;;;;;;;4.40;2.10;;;;;;;14.75;100.00;98540.98;105459;1259;69193;-65
2023/10/31 01:51:04;;;;;;;5.60;2.30;;;;;;;14.75;100.00;98539.04;105456;1257;69153;-65
2023/10/31 01:53:34;;;;;;;8.50;2.80;;;;;;;14.73;100.00;98537.24;105489;1253;71701;-65
2023/10/31 01:56:03;;;;;;;5.40;2.30;;;;;;;14.70;100.00;98528.15;105437;1257;82766;-65
2023/10/31 01:58:36;;;;;;;4.80;2.20;;;;;;;14.67;100.00;98525.66;105422;1258;73167;-64
2023/10/31 02:01:06;;;;;;;8.40;3.40;;;;;;;14.64;100.00;98519.88;105407;1258;69293;-65
2023/10/31 02:03:35;;;;;;;6.30;3.00;;;;;;;14.62;100.00;98518.11;105483;1259;69132;-62
2023/10/31 02:06:03;;;;;;;7.40;2.50;;;;;;;14.60;100.00;98514.13;105435;1257;73059;-65
2023/10/31 02:08:32;;;;;;;5.20;2.40;;;;;;;14.56;100.00;98510.41;105469;1257;81500;-65
2023/10/31 02:11:00;;;;;;;6.50;2.70;;;;;;;14.51;100.00;98505.33;105498;1253;70209;-65
2023/10/31 02:13:28;;;;;;;5.80;2.60;;;;;;;14.46;100.00;98504.48;105569;1257;69088;-65
2023/10/31 02:15:57;;;;;;;5.50;2.20;;;;;;;14.41;100.00;98494.56;105392;1257;69262;-65
2023/10/31 02:18:25;;;;;;;5.60;2.70;;;;;;;14.35;100.00;98492.74;105438;1254;74006;-65
2023/10/31 02:20:53;;;;;;;6.80;2.70;;;;;;;14.31;100.00;98488.86;105349;1259;81412;-66
2023/10/31 02:23:21;;;;;;;4.10;2.50;;;;;;;14.27;100.00;98480.56;105420;1257;71380;-67
2023/10/31 02:25:49;;;;;;;7.00;2.90;;;;;;;14.23;100.00;98478.45;105526;1253;69123;-68
2023/10/31 02:28:18;;;;;;;9.10;4.50;;;;;;;14.19;100.00;98472.31;105442;1257;69177;-68
2023/10/31 02:30:46;;;;;;;20.30;11.90;;;;;;;14.15;100.00;98466.31;105294;1258;75250;-69
2023/10/31 02:33:14;;;;;;;15.50;7.60;;;;;;;14.11;100.00;98461.63;105282;1258;81544;-67
2023/10/31 02:35:42;;;;;;;10.80;4.60;;;;;;;14.04;100.00;98455.98;105456;1257;72645;-66
2023/10/31 02:38:11;;;;;;;10.10;4.30;;;;;;;14.00;100.00;98453.52;105430;1254;69100;-66
2023/10/31 02:40:39;;;;;;;6.70;3.20;;;;;;;13.96;100.00;98447.02;105493;1256;69114;-66
2023/10/31 02:43:07;;;;;;;8.60;3.70;;;;;;;13.92;100.00;98444.86;105476;1257;74101;-65
2023/10/31 02:45:35;;;;;;;6.70;3.60;;;;;;;13.87;100.00;98447.19;105447;1256;81851;-65
2023/10/31 02:48:04;;;;;;;10.00;4.70;;;;;;;13.83;100.00;98448.75;105448;1258;70232;-66
2023/10/31 02:50:32;;;;;;;13.30;4.60;;;;;;;13.79;100.00;98449.22;105493;1254;69184;-65
2023/10/31 02:53:00;;;;;;;12.40;4.70;;;;;;;13.76;100.00;98449.48;105429;1258;69258;-65
2023/10/31 02:55:29;;;;;;;9.00;4.00;;;;;;;13.73;100.00;98446.79;105445;1253;72730;-66
2023/10/31 02:57:57;;;;;;;8.90;4.10;;;;;;;13.69;100.00;98442.50;105476;1257;82643;-66
2023/10/31 03:00:26;;;;;;;6.00;3.10;;;;;;;13.67;100.00;98438.47;105492;1259;72843;-67
2023/10/31 03:02:54;;;;;;;9.80;3.50;;;;;;;13.65;100.00;98437.36;105521;1255;69012;-66
2023/10/31 03:05:24;;;;;;;8.40;3.60;;;;;;;13.64;100.00;98431.73;105463;1258;69130;-66
2023/10/31 03:07:52;;;;;;;11.90;4.10;;;;;;;13.62;100.00;98429.57;105439;1258;73512;-66
2023/10/31 03:10:21;;;;;;;6.30;3.80;;;;;;;13.59;100.00;98424.34;105444;1257;81435;-66
2023/10/31 03:12:49;;;;;;;8.50;4.30;;;;;;;13.58;100.00;98422.89;105414;1255;71784;-66
2023/10/31 03:15:18;;;;;;;8.00;3.90;;;;;;;13.56;100.00;98422.71;105424;1258;69219;-66
2023/10/31 03:17:46;;;;;;;8.50;3.70;;;;;;;13.55;100.00;98422.42;105496;1257;69118;-66
2023/10/31 03:20:14;;;;;;;7.10;3.30;;;;;;;13.54;100.00;98427.36;105485;1256;72835;-66
2023/10/31 03:22:43;;;;;;;6.10;3.00;;;;;;;13.54;100.00;98426.14;105423;1256;81649;-66
2023/10/31 03:25:11;;;;;;;8.90;3.30;;;;;;;13.55;100.00;98425.73;105434;1253;72804;-66
2023/10/31 03:27:39;;;;;;;8.40;3.30;;;;;;;13.57;100.00;98421.33;105419;1259;69182;-65
2023/10/31 03:30:08;;;;;;;8.30;3.00;;;;;;;13.59;100.00;98423.65;105436;1257;69222;-66
2023/10/31 03:32:36;;;;;;;5.60;3.40;;;;;;;13.60;100.00;98420.94;105537;1255;72451;-66
2023/10/31 03:35:05;;;;;;;9.00;3.90;;;;;;;13.62;100.00;98419.23;105490;1258;81559;-66
2023/10/31 03:37:33;;;;;;;7.60;2.90;;;;;;;13.63;100.00;98417.89;105519;1259;70175;-65
2023/10/31 03:40:03;;;;;;;6.10;3.00;;;;;;;13.64;100.00;98413.26;105532;1258;69198;-65
2023/10/31 03:42:32;;;;;;;5.50;2.70;;;;;;;13.65;100.00;98415.45;105510;1258;69195;-65
2023/10/31 03:45:01;;;;;;;5.00;2.60;;;;;;;13.66;100.00;98411.53;105519;1253;72712;-64
2023/10/31 03:47:29;;;;;;;7.10;2.90;;;;;;;13.66;100.00;98413.61;105470;1258;81399;-65
2023/10/31 03:49:57;;;;;;;7.80;2.90;;;;;;;13.67;100.00;98407.63;105418;1257;72928;-64
2023/10/31 03:52:25;;;;;;;6.50;2.70;;;;;;;13.67;100.00;98406.88;105405;1253;69199;-65
2023/10/31 03:54:53;;;;;;;8.20;2.40;;;;;;;13.67;100.00;98404.77;105433;1264;69194;-65
2023/10/31 03:57:21;;;;;;;6.60;2.80;;;;;;;13.67;100.00;98398.31;105455;1256;72868;-65
2023/10/31 03:59:50;;;;;;;5.50;2.70;;;;;;;13.67;100.00;98398.33;105408;1259;82516;-65
2023/10/31 04:02:18;;;;;;;8.40;2.60;;;;;;;13.65;100.00;98394.27;105456;1255;70193;-65
2023/10/31 04:04:46;;;;;;;6.80;2.60;;;;;;;13.63;100.00;98391.95;105509;1259;69148;-65
2023/10/31 04:07:14;;;;;;;8.20;2.80;;;;;;;13.61;100.00;98391.00;105487;1258;69194;-65
2023/10/31 04:09:43;;;;;;;5.80;2.90;;;;;;;13.59;100.00;98393.27;105577;1259;73303;-65
2023/10/31 04:12:11;;;;;;;8.30;2.20;;;;;;;13.58;100.00;98392.14;105441;1258;81847;-65
2023/10/31 04:14:39;;;;;;;5.40;2.60;;;;;;;13.57;100.00;98387.68;105442;1260;72088;-65
2023/10/31 04:17:07;;;;;;;7.80;3.40;;;;;;;13.55;100.00;98389.96;105522;1254;69149;-64
2023/10/31 04:19:36;;;;;;;10.30;3.30;;;;;;;13.52;100.00;98393.69;105498;1266;69167;-64
2023/10/31 04:22:05;;;;;;;4.80;2.90;;;;;;;13.49;100.00;98390.77;105536;1257;74562;-64
2023/10/31 04:24:33;;;;;;;11.00;4.00;;;;;;;13.47;100.00;98390.60;105431;1259;81766;-64
2023/10/31 04:27:01;;;;;;;7.30;4.00;;;;;;;13.46;100.00;98387.73;105422;1254;70834;-64
2023/10/31 04:29:29;;;;;;;6.70;3.40;;;;;;;13.44;100.00;98387.71;105487;1258;69150;-64
2023/10/31 04:31:57;;;;;;;5.30;3.20;;;;;;;13.41;100.00;98384.02;105452;1258;69194;-64
2023/10/31 04:34:25;;;;;;;5.10;2.70;;;;;;;13.41;100.00;98380.77;105541;1256;73227;-64
2023/10/31 04:36:53;;;;;;;8.20;2.80;;;;;;;13.40;100.00;98382.54;105456;1256;81762;-64
2023/10/31 04:39:22;;;;;;;7.40;2.90;;;;;;;13.40;100.00;98377.45;105416;1259;70415;-64
2023/10/31 04:41:50;;;;;;;4.70;2.80;;;;;;;13.41;100.00;98378.64;105512;1254;69131;-64
2023/10/31 04:44:18;;;;;;;8.60;2.90;;;;;;;13.41;100.00;98372.69;105438;1257;69186;-64
2023/10/31 04:46:47;;;;;;;5.10;2.80;;;;;;;13.41;100.00;98373.18;105504;1257;74248;-64
2023/10/31 04:49:16;;;;;;;8.20;2.90;;;;;;;13.42;100.00;98376.29;105456;1265;82152;-65
2023/10/31 04:51:44;;;;;;;6.50;3.60;;;;;;;13.41;100.00;98372.83;105444;1257;71712;-65
2023/10/31 04:54:12;;;;;;;7.30;2.80;;;;;;;13.41;100.00;98374.41;105439;1255;69128;-65
2023/10/31 04:56:40;;;;;;;5.40;2.60;;;;;;;13.41;100.00;98373.04;105431;1259;69155;-65
2023/10/31 04:59:08;;;;;;;9.90;3.10;;;;;;;13.40;100.00;98371.66;105518;1258;73031;-65
2023/10/31 05:01:37;;;;;;;7.00;2.80;;;;;;;13.39;100.00;98376.13;105455;1257;81517;-65
2023/10/31 05:04:05;;;;;;;6.70;3.00;;;;;;;13.37;100.00;98377.00;105455;1259;71826;-65
2023/10/31 05:06:40;;;;;;;7.30;3.00;;;;;;;13.35;100.00;98377.21;105459;1255;69116;-65
2023/10/31 05:09:10;;;;;;;7.50;3.20;;;;;;;13.31;100.00;98386.08;105482;1257;69213;-65
2023/10/31 05:11:39;;;;;;;4.90;2.90;;;;;;;13.29;100.00;98389.27;105485;1256;73068;-65
2023/10/31 05:14:10;;;;;;;7.80;3.00;;;;;;;13.27;100.00;98385.92;105489;1257;81609;-65
2023/10/31 05:16:40;;;;;;;11.10;6.10;;;;;;;13.25;100.00;98385.73;105447;1258;72645;-65
2023/10/31 05:19:09;;;;;;;12.80;6.10;;;;;;;13.21;100.00;98392.80;105442;1254;69193;-65
2023/10/31 05:21:38;;;;;;;10.20;3.80;;;;;;;13.21;100.00;98399.66;105513;1257;69149;-65
2023/10/31 05:24:07;;;;;;;7.60;3.40;;;;;;;13.18;100.00;98407.58;105553;1254;72992;-65
2023/10/31 05:26:35;;;;;;;8.40;3.20;;;;;;;13.16;100.00;98407.05;105486;1258;81763;-65
2023/10/31 05:29:03;;;;;;;6.10;3.20;;;;;;;13.15;100.00;98410.48;105441;1257;71698;-65
2023/10/31 05:31:31;;;;;;;6.80;3.70;;;;;;;13.13;100.00;98406.39;105453;1257;69521;-65
2023/10/31 05:33:59;;;;;;;7.50;3.30;;;;;;;13.12;100.00;98406.48;105420;1254;69184;-65
2023/10/31 05:36:28;;;;;;;5.70;3.30;;;;;;;13.11;100.00;98413.45;105445;1254;72110;-65
2023/10/31 05:38:56;;;;;;;5.00;2.90;;;;;;;13.09;100.00;98419.55;105499;1258;81661;-65
2023/10/31 05:41:24;;;;;;;6.20;3.30;;;;;;;13.05;100.00;98420.36;105429;1257;71965;-65
2023/10/31 05:43:52;;;;;;;5.50;3.30;;;;;;;13.02;100.00;98427.69;105500;1264;69118;-65
2023/10/31 05:46:21;;;;;;;7.00;4.50;;;;;;;12.97;100.00;98428.02;105448;1258;69635;-65
2023/10/31 05:48:50;;;;;;;7.70;3.70;;;;;;;12.94;100.00;98434.73;105446;1254;74443;-66
2023/10/31 05:51:19;;;;;;;6.30;4.10;;;;;;;12.93;100.00;98431.67;105470;1257;81958;-65
2023/10/31 05:53:48;;;;;;;7.80;3.70;;;;;;;12.92;100.00;98430.90;105510;1255;71517;-65
2023/10/31 05:56:16;;;;;;;8.20;3.50;;;;;;;12.90;100.00;98429.98;105512;1256;69200;-65
2023/10/31 05:58:45;;;;;;;7.90;3.50;;;;;;;12.89;100.00;98433.57;105479;1255;69172;-65
2023/10/31 06:01:13;;;;;;;7.50;3.40;;;;;;;12.89;100.00;98436.19;105446;1257;73005;-65
2023/10/31 06:03:43;;;;;;;7.30;3.10;;;;;;;12.90;100.00;98438.20;105477;1256;81549;-65
2023/10/31 06:06:12;;;;;;;7.40;3.30;;;;;;;12.91;100.00;98436.75;105443;1257;73104;-65
2023/10/31 06:08:41;;;;;;;6.30;3.60;;;;;;;12.91;100.00;98436.92;105543;1256;69118;-65
2023/10/31 06:11:12;;;;;;;6.50;3.60;;;;;;;12.90;100.00;98443.46;105489;1257;69179;-65
2023/10/31 06:13:41;;;;;;;6.30;3.70;;;;;;;12.90;100.00;98448.55;105492;1256;72818;-65
2023/10/31 06:16:10;;;;;;;14.60;4.50;;;;;;;12.90;100.00;98457.88;105457;1258;81337;-65
2023/10/31 06:18:40;;;;;;;5.80;3.60;;;;;;;12.90;100.00;98458.55;105516;1260;71503;-65
2023/10/31 06:21:11;;;;;;;7.50;4.60;;;;;;;12.90;100.00;98460.09;105443;1254;69058;-65
2023/10/31 06:23:40;;;;;;;5.90;3.90;;;;;;;12.91;100.00;98460.91;105720;1254;69175;-63
2023/10/31 06:26:08;;;;;;;7.80;4.50;;;;;;;12.93;100.00;98463.79;105721;1255;74230;-66
2023/10/31 06:28:37;;;;;;;9.40;5.00;;;;;;;12.93;100.00;98469.69;105717;1257;82408;-64
2023/10/31 06:31:15;;;;;;;5.70;4.00;;;;;;;12.95;100.00;98478.66;105636;1256;71587;-64
2023/10/31 06:33:43;;;;;;;9.30;3.60;;;;;;;12.98;100.00;98482.53;105612;1256;69203;-66
2023/10/31 06:36:11;;;;;;;8.60;4.10;;;;;;;13.00;100.00;98493.59;105725;1255;69877;-68
2023/10/31 06:38:39;;;;;;;6.60;4.10;;;;;;;13.02;100.00;98497.44;105513;1255;74261;-64
2023/10/31 06:41:07;;;;;;;6.00;3.90;;;;;;;13.05;100.00;98501.42;105603;1256;82797;-66
2023/10/31 06:43:36;;;;;;;7.70;4.50;;;;;;;13.08;100.00;98506.10;105624;1256;72914;-67
2023/10/31 06:46:05;;;;;;;5.50;4.10;;;;;;;13.10;100.00;98512.42;105616;1257;69307;-64
2023/10/31 06:48:33;;;;;;;6.80;4.00;;;;;;;13.12;100.00;98525.21;105670;1258;69206;-64
2023/10/31 06:51:02;;;;;;;5.30;3.90;;;;;;;13.13;100.00;98530.95;105898;1252;74154;-65
2023/10/31 06:53:30;;;;;;;5.10;3.70;;;;;;;13.12;100.00;98539.59;105612;1256;81727;-65
2023/10/31 06:55:58;;;;;;;5.10;3.60;;;;;;;13.12;100.00;98544.86;105598;1254;71746;-65
2023/10/31 06:58:26;;;;;;;6.40;3.60;;;;;;;13.11;100.00;98545.98;105674;1257;69182;-65
2023/10/31 07:00:55;;;;;;;9.20;4.10;;;;;;;13.10;100.00;98549.24;105604;1255;69183;-65
2023/10/31 07:03:23;;;;;;;7.30;4.20;;;;;;;13.10;100.00;98558.52;105701;1254;75087;-65
2023/10/31 07:05:52;;;;;;;6.40;3.40;;;;;;;13.09;100.00;98553.36;105608;1257;83272;-65
2023/10/31 07:08:20;;;;;;;3.80;3.20;;;;;;;13.08;100.00;98561.15;105502;1257;72715;-65
2023/10/31 07:10:48;;;;;;;5.60;3.60;;;;;;;13.07;100.00;98568.05;105508;1254;69145;-64
2023/10/31 07:13:17;;;;;;;5.60;3.30;;;;;;;13.05;100.00;98574.16;105619;1254;69165;-64
2023/10/31 07:15:46;;;;;;;4.40;3.20;;;;;;;13.03;100.00;98578.17;105581;1257;74146;-65
2023/10/31 07:18:14;;;;;;;5.60;2.90;;;;;;;13.01;100.00;98579.02;105457;1254;83528;-65
2023/10/31 07:20:42;;;;;;;4.60;3.30;;;;;;;13.01;100.00;98589.07;105595;1257;71469;-64
2023/10/31 07:23:11;;;;;;;6.50;3.30;;;;;;;12.99;100.00;98585.48;105579;1254;69182;-64
2023/10/31 07:25:39;;;;;;;6.70;3.80;;;;;;;12.98;100.00;98587.86;105648;1254;69179;-64
2023/10/31 07:28:07;;;;;;;5.40;3.10;;;;;;;12.99;100.00;98591.64;105548;1256;73456;-64
2023/10/31 07:30:35;;;;;;;5.70;2.70;;;;;;;12.98;100.00;98595.56;105466;1257;83167;-63
2023/10/31 07:33:03;;;;;;;4.00;3.10;;;;;;;12.99;100.00;98596.36;105473;1253;71544;-64
2023/10/31 07:35:32;;;;;;;3.70;2.00;;;;;;;12.96;100.00;98590.61;105419;1257;69161;-63
2023/10/31 07:38:00;;;;;;;3.40;2.30;;;;;;;12.93;100.00;98587.18;105476;1257;69188;-63
2023/10/31 07:40:28;;;;;;;2.70;2.20;;;;;;;12.91;100.00;98587.68;105644;1257;73315;-63
2023/10/31 07:42:56;;;;;;;3.40;1.90;;;;;;;12.90;100.00;98596.30;105448;1256;81519;-63
2023/10/31 07:45:25;;;;;;;2.40;2.10;;;;;;;12.91;100.00;98594.17;105432;1254;73069;-63
2023/10/31 07:47:53;;;;;;;2.60;2.30;;;;;;;12.90;100.00;98603.86;105444;1257;69112;-63
2023/10/31 07:50:21;;;;;;;2.50;1.90;;;;;;;12.90;100.00;98603.36;105628;1254;69204;-62
2023/10/31 07:52:50;;;;;;;2.20;1.90;;;;;;;12.91;100.00;98602.79;105665;1257;73018;-63
2023/10/31 07:55:19;;;;;;;4.00;2.30;;;;;;;12.90;100.00;98603.15;105614;1257;81412;-63
2023/10/31 07:57:47;;;;;;;2.00;1.80;;;;;;;12.90;100.00;98608.26;105565;1257;71643;-62
2023/10/31 08:00:16;;;;;;;2.30;1.70;;;;;;;12.91;100.00;98606.09;105482;1255;69119;-62
2023/10/31 08:02:44;;;;;;;3.10;1.80;;;;;;;12.93;100.00;98603.30;105731;1255;69873;-62
2023/10/31 08:05:13;;;;;;;3.00;1.50;;;;;;;12.97;100.00;98607.59;105642;1257;72212;-62
2023/10/31 08:07:41;;;;;;;1.90;1.60;;;;;;;12.99;100.00;98620.88;105653;1257;81423;-62
2023/10/31 08:10:10;;;;;;;2.80;1.90;;;;;;;13.03;100.00;98626.41;105595;1254;73564;-62
2023/10/31 08:12:38;;;;;;;2.90;1.80;;;;;;;13.09;100.00;98628.73;105706;1258;69436;-62
2023/10/31 08:15:06;;;;;;;3.00;1.70;;;;;;;13.15;100.00;98634.45;105483;1254;69216;-62
2023/10/31 08:17:34;;;;;;;1.40;1.30;;;;;;;13.21;100.00;98646.47;105422;1257;73457;-62
2023/10/31 08:20:03;;;;;;;3.80;1.60;;;;;;;13.26;100.00;98655.88;105503;1254;82802;-61
2023/10/31 08:22:32;;;;;;;1.60;1.50;;;;;;;13.31;100.00;98650.95;105651;1253;71537;-63
2023/10/31 08:25:00;;;;;;;1.90;1.30;;;;;;;13.36;100.00;98649.33;105575;1254;69183;-61
2023/10/31 08:27:28;;;;;;;1.90;1.50;;;;;;;13.41;100.00;98651.46;105707;1257;69830;-61
2023/10/31 08:29:56;;;;;;;4.40;1.40;;;;;;;13.43;100.00;98661.83;105613;1254;73908;-63
2023/10/31 08:32:24;;;;;;;1.60;1.20;;;;;;;13.44;100.00;98674.70;105613;1255;82591;-63
2023/10/31 08:34:54;;;;;;;1.40;1.30;;;;;;;13.47;100.00;98678.55;105581;1257;71541;-63
2023/10/31 08:37:22;;;;;;;1.00;0.90;;;;;;;13.50;100.00;98687.25;105564;1258;69148;-61
2023/10/31 08:39:50;;;;;;;2.90;0.90;;;;;;;13.53;100.00;98694.77;105582;1254;69121;-61
2023/10/31 08:42:18;;;;;;;1.10;1.00;;;;;;;13.58;100.00;98698.89;105779;1254;74081;-62
2023/10/31 08:44:47;;;;;;;1.50;1.00;;;;;;;13.66;100.00;98702.35;105624;1258;82979;-62
2023/10/31 08:47:15;;;;;;;1.60;0.90;;;;;;;13.75;100.00;98695.52;105542;1255;72685;-62
2023/10/31 08:49:45;;;;;;;2.70;1.40;;;;;;;13.84;100.00;98696.91;105642;1256;69167;-62
2023/10/31 08:52:13;;;;;;;2.80;1.20;;;;;;;13.92;100.00;98701.88;105708;1255;69222;-62
2023/10/31 08:54:41;;;;;;;1.00;0.70;;;;;;;13.95;100.00;98699.19;105504;1256;74150;-62
2023/10/31 08:57:09;;;;;;;1.30;0.80;;;;;;;13.95;100.00;98710.11;105677;1256;81681;-63
2023/10/31 08:59:38;;;;;;;2.50;0.70;;;;;;;13.92;100.00;98718.20;105578;1254;71518;-62
2023/10/31 09:02:06;;;;;;;1.40;0.70;;;;;;;13.88;100.00;98731.34;105491;1254;69772;-62
2023/10/31 09:04:35;;;;;;;1.00;0.70;;;;;;;13.85;100.00;98736.36;105573;1257;69114;-62
2023/10/31 09:07:03;;;;;;;1.10;0.70;;;;;;;13.80;100.00;98741.29;105466;1255;175534;-62
2023/10/31 09:09:32;;;;;;;1.40;0.70;;;;;;;13.79;100.00;98747.30;105588;1255;81229;-62
2023/10/31 09:12:00;;;;;;;2.70;0.80;;;;;;;13.79;100.00;98755.08;105506;1256;71539;-64
2023/10/31 09:14:28;;;;;;;1.40;0.60;;;;;;;13.79;100.00;98747.64;105557;1257;69114;-63
2023/10/31 09:16:56;;;;;;;2.30;0.90;;;;;;;13.81;100.00;98755.92;105559;1256;69132;-64
2023/10/31 09:19:24;;;;;;;2.90;1.10;;;;;;;13.82;100.00;98762.34;105568;1254;74290;-64
2023/10/31 09:21:52;;;;;;;1.90;0.80;;;;;;;13.85;100.00;98777.27;105529;1254;81691;-65
2023/10/31 09:24:21;;;;;;;1.70;0.60;;;;;;;13.89;100.00;98788.69;105539;1254;73001;-64
2023/10/31 09:26:49;;;;;;;1.00;0.40;;;;;;;13.95;100.00;98789.27;105549;1256;69119;-64
2023/10/31 09:29:17;;;;;;;3.00;0.90;;;;;;;14.03;100.00;98801.70;105567;1255;69190;-64
2023/10/31 09:31:56;;;;;;;3.50;0.70;;;;;;;14.07;100.00;98812.63;105569;1254;74035;-64
2023/10/31 09:34:25;;;;;;;1.10;0.70;;;;;;;14.08;100.00;98815.73;105572;1256;82773;-64
2023/10/31 09:36:53;;;;;;;1.90;0.60;;;;;;;14.09;100.00;98829.87;105556;1254;71871;-64
2023/10/31 09:39:22;;;;;;;1.70;0.60;;;;;;;14.10;100.00;98842.07;105618;1253;69199;-64
2023/10/31 09:41:51;;;;;;;1.00;0.60;;;;;;;14.09;100.00;98849.21;105575;1254;69261;-64
2023/10/31 09:44:22;;;;;;;1.20;0.60;;;;;;;14.10;100.00;98851.56;105580;1254;74232;-64
2023/10/31 09:46:54;;;;;;;2.70;0.50;;;;;;;14.13;100.00;98846.36;105536;1258;82585;-64
2023/10/31 09:49:22;;;;;;;1.00;0.50;;;;;;;14.16;100.00;98840.89;105598;1256;72850;-64
2023/10/31 09:51:51;;;;;;;1.80;0.50;;;;;;;14.19;100.00;98843.50;105526;1257;69234;-64
2023/10/31 09:54:20;;;;;;;1.40;0.50;;;;;;;14.18;100.00;98851.95;105593;1252;69192;-64
2023/10/31 09:56:48;;;;;;;3.90;0.60;;;;;;;14.18;100.00;98854.30;105491;1253;73225;-64
2023/10/31 09:59:16;;;;;;;0.90;0.40;;;;;;;14.17;100.00;98847.19;105410;1254;82625;-64
2023/10/31 10:01:44;;;;;;;1.30;0.40;;;;;;;14.17;100.00;98835.72;105549;1254;72746;-65
2023/10/31 10:04:13;;;;;;;1.50;0.50;;;;;;;14.20;100.00;98809.83;105409;1257;69159;-64
2023/10/31 10:07:01;;;;;;;2.20;0.50;;;;;;;14.28;100.00;98816.11;105440;1256;69140;-63
2023/10/31 10:09:31;;;;;;;0.40;0.40;;;;;;;14.35;100.00;98827.69;105467;1254;74223;-63
2023/10/31 10:12:01;;;;;;;2.50;0.50;;;;;;;14.38;100.00;98836.39;105440;1254;82971;-63
2023/10/31 10:14:31;;;;;;;1.80;0.60;;;;;;;14.46;100.00;98830.88;105519;1253;73099;-63
2023/10/31 10:16:59;;;;;;;2.70;0.40;;;;;;;14.51;100.00;98829.79;105464;1253;69161;-63
2023/10/31 10:19:29;;;;;;;2.40;0.30;;;;;;;14.57;100.00;98846.02;105540;1254;69181;-63
2023/10/31 10:21:58;;;;;;;1.00;0.40;;;;;;;14.61;100.00;98849.77;105547;1253;72077;-62
2023/10/31 10:24:26;;;;;;;2.00;0.40;;;;;;;14.72;100.00;98851.48;105472;1256;81957;-62
2023/10/31 10:26:55;;;;;;;0.60;0.30;;;;;;;14.75;100.00;98848.84;105471;1257;72676;-63
2023/10/31 10:29:24;;;;;;;0.50;0.40;;;;;;;14.73;99.95;98861.44;105458;1257;69163;-63
2023/10/31 10:31:52;;;;;;;0.70;0.40;;;;;;;14.75;99.93;98857.10;105512;1258;69126;-63
2023/10/31 10:34:20;;;;;;;0.30;0.30;;;;;;;14.77;99.53;98856.79;105402;1253;73997;-62
2023/10/31 10:36:49;;;;;;;0.90;0.40;;;;;;;14.83;99.07;98862.48;105500;1255;80626;-63
2023/10/31 10:39:22;;;;;;;1.40;0.30;;;;;;;14.88;98.69;98859.58;105450;1254;71777;-63
2023/10/31 10:41:55;;;;;;;0.30;0.30;;;;;;;14.96;97.91;98868.47;105471;1256;69730;-63
2023/10/31 10:44:44;;;;;;;1.30;0.40;;;;;;;15.02;97.44;98879.38;105475;1254;69112;-63
2023/10/31 10:47:13;;;;;;;0.80;0.30;;;;;;;15.12;95.25;98894.80;105494;1257;74231;-64
2023/10/31 10:49:42;;;;;;;1.50;0.30;;;;;;;15.22;95.18;98900.16;105413;1256;81196;-63
2023/10/31 10:52:22;;;;;;;0.50;0.20;;;;;;;15.47;95.18;98893.00;105506;1257;71801;-63
2023/10/31 10:55:08;;;;;;;0.30;0.30;;;;;;;15.81;95.20;98891.13;105454;1253;69132;-63
2023/10/31 10:57:46;;;;;;;0.30;0.30;;;;;;;15.81;93.08;98895.21;105445;1257;69271;-63
2023/10/31 11:00:15;;;;;;;0.80;0.40;;;;;;;15.58;92.32;98896.52;105426;1253;74811;-63
2023/10/31 11:02:43;;;;;;;0.40;0.40;;;;;;;15.43;92.03;98894.21;105493;1257;82903;-63
2023/10/31 11:05:14;;;;;;;1.30;0.30;;;;;;;15.26;91.42;98896.46;105443;1257;71808;-63
2023/10/31 11:07:43;;;;;;;0.50;0.30;;;;;;;15.14;91.18;98894.91;105473;1257;69164;-63
2023/10/31 11:10:11;;;;;;;0.80;0.40;;;;;;;15.05;91.02;98893.10;105613;1254;69115;-63
2023/10/31 11:12:40;;;;;;;2.60;0.40;;;;;;;14.97;90.64;98888.92;105578;1253;74120;-63
2023/10/31 11:15:10;;;;;;;0.90;0.30;;;;;;;14.99;90.67;98887.08;105581;1253;81597;-63
2023/10/31 11:17:40;;;;;;;1.30;0.30;;;;;;;15.02;90.77;98887.48;105537;1253;70869;-64
2023/10/31 11:20:16;;;;;;;1.20;0.20;;;;;;;15.05;89.72;98883.77;105599;1253;69162;-65
2023/10/31 11:22:45;;;;;;;0.60;0.30;;;;;;;15.16;89.71;98884.58;105421;1255;69185;-64
2023/10/31 11:25:20;;;;;;;0.50;0.20;;;;;;;15.47;89.86;98894.58;105565;1253;71316;-64